Red Deer Regional Airport
CYQF : now visible

Airfield :











YOU CAN JOIN US ON...

 
LOGIN :

Register | Disclaimer

   EN    FR    IT 

 









Legend :    VFR   Marginal VFR   IFR   Intensive IFR   Very Intensive IFR
Visi :
Ceiling :
>= 8 km
>= 3000ft
5 to 8 km
1000 to 3000 ft
1500m to 5 km
500 to 1000 ft
800 to 1500m
200 to 500 ft
< 800m
< 200 ft
Symbols :   Thunderstorms  Fog  Heavy snow  Heavy precipitations  Wind > 20 kt






- Airport Elevation : 2968 ft
- IATA code : YQF


CYQF - Red Deer Regional

CURRENT METAR :
  • 050000Z 31007KT 15SM SCT020TCU BKN120 17/10 A3000 RMK TCU3AC2 SLP173 DENSITY ALT 3800FT

EXPIRED METARs :
  • 042300Z 28008G15KT 260V320 15SM SCT020 SCT110 BKN250 16/10 A3000 RMK CU3AC1CI1 SLP174 DENSITY ALT 3700FT
  • 042200Z 28010G15KT 15SM SCT040 BKN110 14/11 A2999 RMK CU3AC3 SLP172 DENSITY ALT 3400FT
  • 042135Z 30008KT 15SM SCT040TCU BKN110 12/10 A3000 RMK TCU4AC2 SLP173 DENSITY ALT 3300FT

TAF TAF CYQF
Valid from the 05 at 00:00 until the 05 at 12:00 UTC


042338Z 0500/0512 28012KT P6SM SCT020 SCT100 BKN250
FM050200 30006KT P6SM SCT080
BECMG 0504/0506 25006KT RMK NXT FCST BY 050600Z
CZEG FIR / North America



MET'MAP, your aeronautical weather chart ! - Copyright ORBIFLY December 2007 - Disclaimer

ORBIFLY MET'MAP TEAM :

Programming & Development : Alexandra Zaïnal
Concept & original design : Baudouin d'Aumeries
Assistance for programming : Marc-Olivier Méhu
Technical & hardware support : Manuel Goepfert

Contact : metmap@orbifly.com




SOURCES & CREDITS :

   NOAA       Earth
Advisory